sensor_id;sensor_type;location;lat;lon;timestamp;P1;durP1;ratioP1;P2;durP2;ratioP2
48596;SDS011;34382;43.160;24.148;2023-11-19T00:00:45;5.85;;;2.03;;
48596;SDS011;34382;43.160;24.148;2023-11-19T00:02:24;4.25;;;2.00;;
48596;SDS011;34382;43.160;24.148;2023-11-19T00:03:56;4.70;;;2.47;;
48596;SDS011;34382;43.160;24.148;2023-11-19T00:05:29;3.88;;;2.05;;
48596;SDS011;34382;43.160;24.148;2023-11-19T00:07:01;5.25;;;1.98;;
48596;SDS011;34382;43.160;24.148;2023-11-19T00:08:36;4.65;;;1.80;;
48596;SDS011;34382;43.160;24.148;2023-11-19T00:10:12;4.82;;;1.98;;
48596;SDS011;34382;43.160;24.148;2023-11-19T00:11:45;4.75;;;2.10;;
48596;SDS011;34382;43.160;24.148;2023-11-19T00:13:25;4.63;;;2.00;;
48596;SDS011;34382;43.160;24.148;2023-11-19T00:14:57;2.78;;;1.63;;
48596;SDS011;34382;43.160;24.148;2023-11-19T00:16:30;4.65;;;1.90;;
48596;SDS011;34382;43.160;24.148;2023-11-19T00:18:05;4.72;;;1.90;;
48596;SDS011;34382;43.160;24.148;2023-11-19T00:19:37;4.00;;;1.83;;
48596;SDS011;34382;43.160;24.148;2023-11-19T00:21:10;4.45;;;2.08;;
48596;SDS011;34382;43.160;24.148;2023-11-19T00:22:42;5.13;;;2.17;;
48596;SDS011;34382;43.160;24.148;2023-11-19T00:24:18;4.75;;;2.10;;
48596;SDS011;34382;43.160;24.148;2023-11-19T00:25:50;4.50;;;1.98;;
48596;SDS011;34382;43.160;24.148;2023-11-19T00:37:48;3.65;;;1.70;;
48596;SDS011;34382;43.160;24.148;2023-11-19T00:39:41;4.85;;;1.77;;
48596;SDS011;34382;43.160;24.148;2023-11-19T00:41:15;4.40;;;1.90;;
48596;SDS011;34382;43.160;24.148;2023-11-19T00:42:48;4.20;;;1.77;;
48596;SDS011;34382;43.160;24.148;2023-11-19T00:44:23;5.50;;;2.28;;
48596;SDS011;34382;43.160;24.148;2023-11-19T00:45:55;5.55;;;2.20;;
48596;SDS011;34382;43.160;24.148;2023-11-19T00:47:27;4.63;;;1.80;;
48596;SDS011;34382;43.160;24.148;2023-11-19T00:48:59;5.20;;;2.03;;
48596;SDS011;34382;43.160;24.148;2023-11-19T00:50:32;5.60;;;2.17;;
48596;SDS011;34382;43.160;24.148;2023-11-19T00:52:08;4.35;;;1.98;;
48596;SDS011;34382;43.160;24.148;2023-11-19T00:53:41;4.18;;;1.88;;
48596;SDS011;34382;43.160;24.148;2023-11-19T00:55:13;3.30;;;1.70;;
48596;SDS011;34382;43.160;24.148;2023-11-19T00:56:45;5.82;;;2.05;;
48596;SDS011;34382;43.160;24.148;2023-11-19T00:58:17;3.92;;;1.88;;
48596;SDS011;34382;43.160;24.148;2023-11-19T00:59:50;4.38;;;2.00;;
48596;SDS011;34382;43.160;24.148;2023-11-19T01:01:22;4.55;;;2.10;;
48596;SDS011;34382;43.160;24.148;2023-11-19T01:02:54;5.20;;;2.05;;
48596;SDS011;34382;43.160;24.148;2023-11-19T01:04:27;5.75;;;2.13;;
48596;SDS011;34382;43.160;24.148;2023-11-19T01:05:59;4.43;;;1.90;;
48596;SDS011;34382;43.160;24.148;2023-11-19T01:07:34;4.35;;;1.80;;
48596;SDS011;34382;43.160;24.148;2023-11-19T01:09:06;4.22;;;1.90;;
48596;SDS011;34382;43.160;24.148;2023-11-19T01:10:40;5.65;;;2.08;;
48596;SDS011;34382;43.160;24.148;2023-11-19T01:12:12;4.60;;;2.00;;
48596;SDS011;34382;43.160;24.148;2023-11-19T01:13:44;3.95;;;1.90;;
48596;SDS011;34382;43.160;24.148;2023-11-19T01:15:17;4.40;;;1.92;;
48596;SDS011;34382;43.160;24.148;2023-11-19T01:16:50;5.28;;;2.33;;
48596;SDS011;34382;43.160;24.148;2023-11-19T01:18:23;6.00;;;2.17;;
48596;SDS011;34382;43.160;24.148;2023-11-19T01:19:55;4.60;;;2.05;;
48596;SDS011;34382;43.160;24.148;2023-11-19T01:21:27;5.35;;;2.13;;
48596;SDS011;34382;43.160;24.148;2023-11-19T01:23:00;5.50;;;1.95;;
48596;SDS011;34382;43.160;24.148;2023-11-19T01:24:32;5.95;;;2.13;;
48596;SDS011;34382;43.160;24.148;2023-11-19T01:26:04;4.97;;;2.10;;
48596;SDS011;34382;43.160;24.148;2023-11-19T01:27:37;4.30;;;2.33;;
48596;SDS011;34382;43.160;24.148;2023-11-19T01:29:09;5.60;;;1.98;;
48596;SDS011;34382;43.160;24.148;2023-11-19T01:30:41;3.58;;;2.05;;
48596;SDS011;34382;43.160;24.148;2023-11-19T01:32:14;4.75;;;2.13;;
48596;SDS011;34382;43.160;24.148;2023-11-19T01:33:46;3.58;;;1.85;;
48596;SDS011;34382;43.160;24.148;2023-11-19T01:35:18;3.90;;;1.90;;
48596;SDS011;34382;43.160;24.148;2023-11-19T01:36:51;3.78;;;1.90;;
48596;SDS011;34382;43.160;24.148;2023-11-19T01:38:23;5.45;;;2.40;;
48596;SDS011;34382;43.160;24.148;2023-11-19T01:39:55;5.25;;;2.00;;
48596;SDS011;34382;43.160;24.148;2023-11-19T01:41:33;4.78;;;1.80;;
48596;SDS011;34382;43.160;24.148;2023-11-19T01:43:07;4.05;;;2.00;;
48596;SDS011;34382;43.160;24.148;2023-11-19T01:44:53;4.55;;;1.90;;
48596;SDS011;34382;43.160;24.148;2023-11-19T01:46:27;3.95;;;1.83;;
48596;SDS011;34382;43.160;24.148;2023-11-19T01:48:02;5.38;;;2.13;;
48596;SDS011;34382;43.160;24.148;2023-11-19T01:49:38;5.35;;;2.00;;
48596;SDS011;34382;43.160;24.148;2023-11-19T01:51:10;4.55;;;1.88;;
48596;SDS011;34382;43.160;24.148;2023-11-19T01:52:44;3.92;;;1.88;;
48596;SDS011;34382;43.160;24.148;2023-11-19T01:54:16;5.05;;;2.22;;
48596;SDS011;34382;43.160;24.148;2023-11-19T01:55:48;3.83;;;1.80;;
48596;SDS011;34382;43.160;24.148;2023-11-19T01:57:21;5.70;;;2.15;;
48596;SDS011;34382;43.160;24.148;2023-11-19T01:58:54;5.50;;;2.05;;
48596;SDS011;34382;43.160;24.148;2023-11-19T02:00:27;3.60;;;1.80;;
48596;SDS011;34382;43.160;24.148;2023-11-19T02:02:00;4.60;;;2.00;;
48596;SDS011;34382;43.160;24.148;2023-11-19T02:03:33;5.80;;;2.13;;
48596;SDS011;34382;43.160;24.148;2023-11-19T02:05:06;4.18;;;2.00;;
48596;SDS011;34382;43.160;24.148;2023-11-19T02:06:39;5.45;;;2.30;;
48596;SDS011;34382;43.160;24.148;2023-11-19T02:09:45;7.53;;;3.28;;
48596;SDS011;34382;43.160;24.148;2023-11-19T02:11:17;6.68;;;3.28;;
48596;SDS011;34382;43.160;24.148;2023-11-19T02:12:50;4.22;;;2.10;;
48596;SDS011;34382;43.160;24.148;2023-11-19T02:14:23;5.13;;;2.42;;
48596;SDS011;34382;43.160;24.148;2023-11-19T02:15:57;5.63;;;2.28;;
48596;SDS011;34382;43.160;24.148;2023-11-19T02:17:30;6.95;;;2.55;;
48596;SDS011;34382;43.160;24.148;2023-11-19T02:19:12;6.03;;;2.85;;
48596;SDS011;34382;43.160;24.148;2023-11-19T02:20:46;6.85;;;2.70;;
48596;SDS011;34382;43.160;24.148;2023-11-19T02:22:21;6.65;;;3.08;;
48596;SDS011;34382;43.160;24.148;2023-11-19T02:23:54;6.50;;;2.72;;
48596;SDS011;34382;43.160;24.148;2023-11-19T02:25:39;7.47;;;3.20;;
48596;SDS011;34382;43.160;24.148;2023-11-19T02:27:15;6.40;;;2.60;;
48596;SDS011;34382;43.160;24.148;2023-11-19T02:28:52;5.93;;;2.55;;
48596;SDS011;34382;43.160;24.148;2023-11-19T02:30:24;8.35;;;3.40;;
48596;SDS011;34382;43.160;24.148;2023-11-19T02:32:00;7.65;;;3.28;;
48596;SDS011;34382;43.160;24.148;2023-11-19T02:33:36;7.78;;;3.33;;
48596;SDS011;34382;43.160;24.148;2023-11-19T02:35:11;6.28;;;2.78;;
48596;SDS011;34382;43.160;24.148;2023-11-19T02:36:44;5.45;;;2.58;;
48596;SDS011;34382;43.160;24.148;2023-11-19T02:38:16;7.18;;;2.90;;
48596;SDS011;34382;43.160;24.148;2023-11-19T02:39:48;4.60;;;2.20;;
48596;SDS011;34382;43.160;24.148;2023-11-19T02:41:20;4.47;;;2.25;;
48596;SDS011;34382;43.160;24.148;2023-11-19T02:42:53;6.40;;;2.55;;
48596;SDS011;34382;43.160;24.148;2023-11-19T02:46:02;6.40;;;2.60;;
48596;SDS011;34382;43.160;24.148;2023-11-19T02:47:41;4.05;;;2.20;;
48596;SDS011;34382;43.160;24.148;2023-11-19T02:49:16;5.35;;;2.30;;
48596;SDS011;34382;43.160;24.148;2023-11-19T02:50:49;4.78;;;2.00;;
48596;SDS011;34382;43.160;24.148;2023-11-19T02:52:21;5.85;;;2.33;;
48596;SDS011;34382;43.160;24.148;2023-11-19T02:53:53;5.45;;;2.50;;
48596;SDS011;34382;43.160;24.148;2023-11-19T02:55:25;6.18;;;2.47;;
48596;SDS011;34382;43.160;24.148;2023-11-19T02:57:00;5.18;;;2.58;;
48596;SDS011;34382;43.160;24.148;2023-11-19T02:58:35;5.30;;;2.28;;
48596;SDS011;34382;43.160;24.148;2023-11-19T03:00:07;4.32;;;2.13;;
48596;SDS011;34382;43.160;24.148;2023-11-19T03:01:44;4.38;;;2.25;;
48596;SDS011;34382;43.160;24.148;2023-11-19T03:03:22;5.15;;;2.38;;
48596;SDS011;34382;43.160;24.148;2023-11-19T03:04:54;4.72;;;2.25;;
48596;SDS011;34382;43.160;24.148;2023-11-19T03:06:27;6.38;;;2.30;;
48596;SDS011;34382;43.160;24.148;2023-11-19T03:08:00;5.63;;;2.30;;
48596;SDS011;34382;43.160;24.148;2023-11-19T03:09:33;5.30;;;2.30;;
48596;SDS011;34382;43.160;24.148;2023-11-19T03:11:11;6.07;;;2.55;;
48596;SDS011;34382;43.160;24.148;2023-11-19T03:12:43;5.32;;;2.33;;
48596;SDS011;34382;43.160;24.148;2023-11-19T03:14:17;5.57;;;2.72;;
48596;SDS011;34382;43.160;24.148;2023-11-19T03:15:50;6.07;;;2.65;;
48596;SDS011;34382;43.160;24.148;2023-11-19T03:17:23;5.30;;;2.42;;
48596;SDS011;34382;43.160;24.148;2023-11-19T03:18:56;5.30;;;2.53;;
48596;SDS011;34382;43.160;24.148;2023-11-19T03:20:28;5.20;;;2.38;;
48596;SDS011;34382;43.160;24.148;2023-11-19T03:23:34;5.82;;;2.47;;
48596;SDS011;34382;43.160;24.148;2023-11-19T03:25:07;5.40;;;2.65;;
48596;SDS011;34382;43.160;24.148;2023-11-19T03:26:40;5.43;;;2.45;;
48596;SDS011;34382;43.160;24.148;2023-11-19T03:28:14;5.72;;;2.65;;
48596;SDS011;34382;43.160;24.148;2023-11-19T03:29:46;5.57;;;2.72;;
48596;SDS011;34382;43.160;24.148;2023-11-19T03:31:18;5.53;;;2.75;;
48596;SDS011;34382;43.160;24.148;2023-11-19T03:32:51;5.65;;;2.75;;
48596;SDS011;34382;43.160;24.148;2023-11-19T03:34:24;5.28;;;2.70;;
48596;SDS011;34382;43.160;24.148;2023-11-19T03:35:56;5.47;;;2.55;;
48596;SDS011;34382;43.160;24.148;2023-11-19T03:37:28;5.50;;;2.47;;
48596;SDS011;34382;43.160;24.148;2023-11-19T03:39:01;6.90;;;3.25;;
48596;SDS011;34382;43.160;24.148;2023-11-19T03:40:33;5.78;;;2.88;;
48596;SDS011;34382;43.160;24.148;2023-11-19T03:42:05;6.00;;;2.55;;
48596;SDS011;34382;43.160;24.148;2023-11-19T03:43:37;6.90;;;2.80;;
48596;SDS011;34382;43.160;24.148;2023-11-19T03:45:10;7.40;;;3.03;;
48596;SDS011;34382;43.160;24.148;2023-11-19T03:46:42;5.85;;;2.67;;
48596;SDS011;34382;43.160;24.148;2023-11-19T03:48:15;5.63;;;2.72;;
48596;SDS011;34382;43.160;24.148;2023-11-19T03:49:51;7.63;;;3.00;;
48596;SDS011;34382;43.160;24.148;2023-11-19T03:51:23;5.80;;;2.63;;
48596;SDS011;34382;43.160;24.148;2023-11-19T03:52:55;6.75;;;3.22;;
48596;SDS011;34382;43.160;24.148;2023-11-19T03:54:28;8.32;;;3.83;;
48596;SDS011;34382;43.160;24.148;2023-11-19T03:56:01;6.90;;;2.97;;
48596;SDS011;34382;43.160;24.148;2023-11-19T03:59:12;6.85;;;3.00;;
48596;SDS011;34382;43.160;24.148;2023-11-19T04:00:44;7.70;;;3.22;;
48596;SDS011;34382;43.160;24.148;2023-11-19T04:02:16;7.72;;;3.42;;
48596;SDS011;34382;43.160;24.148;2023-11-19T04:03:49;6.68;;;2.78;;
48596;SDS011;34382;43.160;24.148;2023-11-19T04:05:22;6.82;;;3.10;;
48596;SDS011;34382;43.160;24.148;2023-11-19T04:06:54;8.57;;;3.25;;
48596;SDS011;34382;43.160;24.148;2023-11-19T04:08:26;6.57;;;3.22;;
48596;SDS011;34382;43.160;24.148;2023-11-19T04:09:58;5.45;;;2.65;;
48596;SDS011;34382;43.160;24.148;2023-11-19T04:11:31;6.18;;;2.50;;
48596;SDS011;34382;43.160;24.148;2023-11-19T04:13:04;5.00;;;2.17;;
48596;SDS011;34382;43.160;24.148;2023-11-19T04:14:36;5.25;;;2.47;;
48596;SDS011;34382;43.160;24.148;2023-11-19T04:16:09;9.57;;;2.55;;
48596;SDS011;34382;43.160;24.148;2023-11-19T04:17:41;4.78;;;2.30;;
48596;SDS011;34382;43.160;24.148;2023-11-19T04:19:13;4.55;;;2.28;;
48596;SDS011;34382;43.160;24.148;2023-11-19T04:20:46;7.03;;;2.50;;
48596;SDS011;34382;43.160;24.148;2023-11-19T04:22:18;5.22;;;2.35;;
48596;SDS011;34382;43.160;24.148;2023-11-19T04:23:50;6.32;;;2.80;;
48596;SDS011;34382;43.160;24.148;2023-11-19T04:25:23;6.18;;;2.72;;
48596;SDS011;34382;43.160;24.148;2023-11-19T04:26:58;5.95;;;2.45;;
48596;SDS011;34382;43.160;24.148;2023-11-19T04:28:30;6.55;;;2.70;;
48596;SDS011;34382;43.160;24.148;2023-11-19T04:30:03;5.57;;;2.37;;
48596;SDS011;34382;43.160;24.148;2023-11-19T04:31:37;7.13;;;2.92;;
48596;SDS011;34382;43.160;24.148;2023-11-19T04:33:09;5.13;;;2.08;;
48596;SDS011;34382;43.160;24.148;2023-11-19T04:34:42;5.63;;;2.40;;
48596;SDS011;34382;43.160;24.148;2023-11-19T04:36:18;5.28;;;2.33;;
48596;SDS011;34382;43.160;24.148;2023-11-19T04:37:50;5.55;;;2.75;;
48596;SDS011;34382;43.160;24.148;2023-11-19T04:39:23;4.55;;;2.20;;
48596;SDS011;34382;43.160;24.148;2023-11-19T04:40:55;4.50;;;2.28;;
48596;SDS011;34382;43.160;24.148;2023-11-19T04:42:29;6.60;;;2.50;;
48596;SDS011;34382;43.160;24.148;2023-11-19T04:44:01;5.78;;;2.47;;
48596;SDS011;34382;43.160;24.148;2023-11-19T04:45:33;7.33;;;3.00;;
48596;SDS011;34382;43.160;24.148;2023-11-19T04:47:06;7.20;;;2.97;;
48596;SDS011;34382;43.160;24.148;2023-11-19T04:48:38;6.60;;;3.10;;
48596;SDS011;34382;43.160;24.148;2023-11-19T04:50:12;6.70;;;2.72;;
48596;SDS011;34382;43.160;24.148;2023-11-19T04:51:47;6.50;;;2.78;;
48596;SDS011;34382;43.160;24.148;2023-11-19T04:53:20;6.03;;;2.67;;
48596;SDS011;34382;43.160;24.148;2023-11-19T04:54:52;7.00;;;2.90;;
48596;SDS011;34382;43.160;24.148;2023-11-19T04:56:24;6.35;;;2.75;;
48596;SDS011;34382;43.160;24.148;2023-11-19T04:57:57;6.10;;;2.70;;
48596;SDS011;34382;43.160;24.148;2023-11-19T04:59:30;5.93;;;2.75;;
48596;SDS011;34382;43.160;24.148;2023-11-19T05:01:03;6.20;;;2.50;;
48596;SDS011;34382;43.160;24.148;2023-11-19T05:04:08;5.38;;;2.60;;
48596;SDS011;34382;43.160;24.148;2023-11-19T05:05:41;4.80;;;2.30;;
48596;SDS011;34382;43.160;24.148;2023-11-19T05:07:13;7.22;;;2.70;;
48596;SDS011;34382;43.160;24.148;2023-11-19T05:08:45;5.55;;;2.53;;
48596;SDS011;34382;43.160;24.148;2023-11-19T05:10:17;6.68;;;2.70;;
48596;SDS011;34382;43.160;24.148;2023-11-19T05:11:50;5.78;;;2.50;;
48596;SDS011;34382;43.160;24.148;2023-11-19T05:13:22;5.97;;;2.40;;
48596;SDS011;34382;43.160;24.148;2023-11-19T05:14:55;5.82;;;2.50;;
48596;SDS011;34382;43.160;24.148;2023-11-19T05:16:27;7.22;;;2.92;;
48596;SDS011;34382;43.160;24.148;2023-11-19T05:17:59;6.93;;;2.97;;
48596;SDS011;34382;43.160;24.148;2023-11-19T05:19:31;6.25;;;3.05;;
48596;SDS011;34382;43.160;24.148;2023-11-19T05:21:04;8.18;;;3.97;;
48596;SDS011;34382;43.160;24.148;2023-11-19T05:22:36;5.18;;;2.30;;
48596;SDS011;34382;43.160;24.148;2023-11-19T05:24:09;6.05;;;2.80;;
48596;SDS011;34382;43.160;24.148;2023-11-19T05:25:41;6.22;;;2.85;;
48596;SDS011;34382;43.160;24.148;2023-11-19T05:27:13;6.18;;;2.78;;
48596;SDS011;34382;43.160;24.148;2023-11-19T05:28:46;4.63;;;2.35;;
48596;SDS011;34382;43.160;24.148;2023-11-19T05:30:18;4.85;;;2.60;;
48596;SDS011;34382;43.160;24.148;2023-11-19T05:31:51;4.75;;;2.40;;
48596;SDS011;34382;43.160;24.148;2023-11-19T05:33:23;6.70;;;2.80;;
48596;SDS011;34382;43.160;24.148;2023-11-19T05:34:55;4.30;;;2.13;;
48596;SDS011;34382;43.160;24.148;2023-11-19T05:36:28;5.43;;;2.42;;
48596;SDS011;34382;43.160;24.148;2023-11-19T05:38:00;6.25;;;2.80;;
48596;SDS011;34382;43.160;24.148;2023-11-19T05:39:34;7.50;;;3.30;;
48596;SDS011;34382;43.160;24.148;2023-11-19T05:41:06;5.78;;;2.55;;
48596;SDS011;34382;43.160;24.148;2023-11-19T05:42:39;5.68;;;2.70;;
48596;SDS011;34382;43.160;24.148;2023-11-19T05:44:11;5.60;;;2.60;;
48596;SDS011;34382;43.160;24.148;2023-11-19T05:45:43;5.80;;;2.85;;
48596;SDS011;34382;43.160;24.148;2023-11-19T05:47:16;5.95;;;2.78;;
48596;SDS011;34382;43.160;24.148;2023-11-19T05:48:48;6.10;;;2.65;;
48596;SDS011;34382;43.160;24.148;2023-11-19T05:50:20;5.28;;;2.70;;
48596;SDS011;34382;43.160;24.148;2023-11-19T05:51:53;6.68;;;2.97;;
48596;SDS011;34382;43.160;24.148;2023-11-19T05:53:27;7.45;;;3.20;;
48596;SDS011;34382;43.160;24.148;2023-11-19T05:55:00;7.40;;;2.88;;
48596;SDS011;34382;43.160;24.148;2023-11-19T05:56:36;6.28;;;2.78;;
48596;SDS011;34382;43.160;24.148;2023-11-19T05:58:08;6.88;;;2.92;;
48596;SDS011;34382;43.160;24.148;2023-11-19T05:59:43;7.03;;;3.00;;
48596;SDS011;34382;43.160;24.148;2023-11-19T06:01:15;6.50;;;3.10;;
48596;SDS011;34382;43.160;24.148;2023-11-19T06:02:48;7.40;;;3.35;;
48596;SDS011;34382;43.160;24.148;2023-11-19T06:04:20;7.22;;;3.40;;
48596;SDS011;34382;43.160;24.148;2023-11-19T06:05:52;7.30;;;3.55;;
48596;SDS011;34382;43.160;24.148;2023-11-19T06:08:58;8.00;;;3.75;;
48596;SDS011;34382;43.160;24.148;2023-11-19T06:10:44;6.80;;;2.90;;
48596;SDS011;34382;43.160;24.148;2023-11-19T06:12:22;6.22;;;2.80;;
48596;SDS011;34382;43.160;24.148;2023-11-19T06:13:54;6.05;;;2.78;;
48596;SDS011;34382;43.160;24.148;2023-11-19T06:15:26;7.38;;;2.90;;
48596;SDS011;34382;43.160;24.148;2023-11-19T06:17:01;6.28;;;3.00;;
48596;SDS011;34382;43.160;24.148;2023-11-19T06:18:36;7.50;;;3.22;;
48596;SDS011;34382;43.160;24.148;2023-11-19T06:20:09;6.70;;;2.92;;
48596;SDS011;34382;43.160;24.148;2023-11-19T06:21:43;6.97;;;2.90;;
48596;SDS011;34382;43.160;24.148;2023-11-19T06:23:15;6.15;;;2.90;;
48596;SDS011;34382;43.160;24.148;2023-11-19T06:24:48;4.95;;;2.55;;
48596;SDS011;34382;43.160;24.148;2023-11-19T06:26:20;6.15;;;3.03;;
48596;SDS011;34382;43.160;24.148;2023-11-19T06:27:54;6.35;;;2.67;;
48596;SDS011;34382;43.160;24.148;2023-11-19T06:29:26;6.88;;;2.97;;
48596;SDS011;34382;43.160;24.148;2023-11-19T06:30:58;6.50;;;2.55;;
48596;SDS011;34382;43.160;24.148;2023-11-19T06:32:31;6.18;;;2.67;;
48596;SDS011;34382;43.160;24.148;2023-11-19T06:34:04;5.90;;;2.85;;
48596;SDS011;34382;43.160;24.148;2023-11-19T06:35:36;5.38;;;2.33;;
48596;SDS011;34382;43.160;24.148;2023-11-19T06:37:09;4.97;;;2.53;;
48596;SDS011;34382;43.160;24.148;2023-11-19T06:38:41;6.22;;;2.50;;
48596;SDS011;34382;43.160;24.148;2023-11-19T06:40:14;7.00;;;3.05;;
48596;SDS011;34382;43.160;24.148;2023-11-19T06:41:47;7.18;;;4.07;;
48596;SDS011;34382;43.160;24.148;2023-11-19T06:43:19;7.97;;;3.55;;
48596;SDS011;34382;43.160;24.148;2023-11-19T06:44:52;7.43;;;3.60;;
48596;SDS011;34382;43.160;24.148;2023-11-19T06:46:24;7.88;;;3.83;;
48596;SDS011;34382;43.160;24.148;2023-11-19T06:47:56;7.82;;;3.33;;
48596;SDS011;34382;43.160;24.148;2023-11-19T06:49:30;9.15;;;4.05;;
48596;SDS011;34382;43.160;24.148;2023-11-19T06:51:04;4.90;;;2.50;;
48596;SDS011;34382;43.160;24.148;2023-11-19T06:52:37;9.32;;;4.15;;
48596;SDS011;34382;43.160;24.148;2023-11-19T06:54:09;7.50;;;2.83;;
48596;SDS011;34382;43.160;24.148;2023-11-19T06:55:41;6.03;;;2.72;;
48596;SDS011;34382;43.160;24.148;2023-11-19T06:57:14;7.13;;;2.80;;
48596;SDS011;34382;43.160;24.148;2023-11-19T06:58:46;7.70;;;3.15;;
48596;SDS011;34382;43.160;24.148;2023-11-19T07:01:52;6.60;;;2.80;;
48596;SDS011;34382;43.160;24.148;2023-11-19T07:03:24;5.97;;;2.75;;
48596;SDS011;34382;43.160;24.148;2023-11-19T07:04:56;7.90;;;3.50;;
48596;SDS011;34382;43.160;24.148;2023-11-19T07:06:29;5.78;;;2.83;;
48596;SDS011;34382;43.160;24.148;2023-11-19T07:08:05;6.97;;;2.75;;
48596;SDS011;34382;43.160;24.148;2023-11-19T07:09:39;6.85;;;2.97;;
48596;SDS011;34382;43.160;24.148;2023-11-19T07:11:11;6.57;;;3.00;;
48596;SDS011;34382;43.160;24.148;2023-11-19T07:12:45;6.10;;;2.50;;
48596;SDS011;34382;43.160;24.148;2023-11-19T07:14:22;5.20;;;2.58;;
48596;SDS011;34382;43.160;24.148;2023-11-19T07:15:58;6.00;;;2.65;;
48596;SDS011;34382;43.160;24.148;2023-11-19T07:17:30;6.05;;;2.85;;
48596;SDS011;34382;43.160;24.148;2023-11-19T07:19:03;5.20;;;2.40;;
48596;SDS011;34382;43.160;24.148;2023-11-19T07:20:37;6.80;;;2.90;;
48596;SDS011;34382;43.160;24.148;2023-11-19T07:22:13;5.90;;;2.72;;
48596;SDS011;34382;43.160;24.148;2023-11-19T07:23:46;6.88;;;3.35;;
48596;SDS011;34382;43.160;24.148;2023-11-19T07:25:18;9.20;;;3.80;;
48596;SDS011;34382;43.160;24.148;2023-11-19T07:26:50;5.75;;;2.85;;
48596;SDS011;34382;43.160;24.148;2023-11-19T07:28:23;7.03;;;3.15;;
48596;SDS011;34382;43.160;24.148;2023-11-19T07:29:56;7.72;;;3.22;;
48596;SDS011;34382;43.160;24.148;2023-11-19T07:31:29;9.45;;;4.13;;
48596;SDS011;34382;43.160;24.148;2023-11-19T07:33:01;6.28;;;2.97;;
48596;SDS011;34382;43.160;24.148;2023-11-19T07:34:35;8.05;;;3.33;;
48596;SDS011;34382;43.160;24.148;2023-11-19T07:36:08;6.28;;;3.17;;
48596;SDS011;34382;43.160;24.148;2023-11-19T07:37:42;6.45;;;2.80;;
48596;SDS011;34382;43.160;24.148;2023-11-19T07:39:14;8.18;;;3.60;;
48596;SDS011;34382;43.160;24.148;2023-11-19T07:40:46;7.70;;;3.35;;
48596;SDS011;34382;43.160;24.148;2023-11-19T07:42:22;7.35;;;3.33;;
48596;SDS011;34382;43.160;24.148;2023-11-19T07:43:55;8.57;;;3.80;;
48596;SDS011;34382;43.160;24.148;2023-11-19T07:45:28;7.18;;;3.00;;
48596;SDS011;34382;43.160;24.148;2023-11-19T07:47:00;9.27;;;3.38;;
48596;SDS011;34382;43.160;24.148;2023-11-19T07:48:32;7.07;;;3.05;;
48596;SDS011;34382;43.160;24.148;2023-11-19T07:50:06;6.72;;;2.92;;
48596;SDS011;34382;43.160;24.148;2023-11-19T07:51:39;7.00;;;2.95;;
48596;SDS011;34382;43.160;24.148;2023-11-19T07:53:25;7.97;;;3.22;;
48596;SDS011;34382;43.160;24.148;2023-11-19T07:54:57;7.82;;;3.72;;
48596;SDS011;34382;43.160;24.148;2023-11-19T07:56:29;8.05;;;3.63;;
48596;SDS011;34382;43.160;24.148;2023-11-19T07:58:03;5.70;;;2.70;;
48596;SDS011;34382;43.160;24.148;2023-11-19T07:59:35;5.95;;;2.65;;
48596;SDS011;34382;43.160;24.148;2023-11-19T08:01:08;6.68;;;3.08;;
48596;SDS011;34382;43.160;24.148;2023-11-19T08:02:41;7.97;;;3.38;;
48596;SDS011;34382;43.160;24.148;2023-11-19T08:04:13;9.55;;;3.75;;
48596;SDS011;34382;43.160;24.148;2023-11-19T08:05:46;8.25;;;3.78;;
48596;SDS011;34382;43.160;24.148;2023-11-19T08:07:18;7.30;;;3.85;;
48596;SDS011;34382;43.160;24.148;2023-11-19T08:08:56;6.50;;;3.15;;
48596;SDS011;34382;43.160;24.148;2023-11-19T08:10:28;9.32;;;4.28;;
48596;SDS011;34382;43.160;24.148;2023-11-19T08:12:01;7.40;;;3.63;;
48596;SDS011;34382;43.160;24.148;2023-11-19T08:13:33;7.50;;;3.45;;
48596;SDS011;34382;43.160;24.148;2023-11-19T08:15:06;6.88;;;3.40;;
48596;SDS011;34382;43.160;24.148;2023-11-19T08:16:39;7.32;;;3.45;;
48596;SDS011;34382;43.160;24.148;2023-11-19T08:18:12;6.10;;;2.97;;
48596;SDS011;34382;43.160;24.148;2023-11-19T08:19:44;7.35;;;3.15;;
48596;SDS011;34382;43.160;24.148;2023-11-19T08:21:17;5.93;;;2.92;;
48596;SDS011;34382;43.160;24.148;2023-11-19T08:22:49;7.82;;;3.55;;
48596;SDS011;34382;43.160;24.148;2023-11-19T08:24:21;7.72;;;3.38;;
48596;SDS011;34382;43.160;24.148;2023-11-19T08:25:54;9.77;;;3.90;;
48596;SDS011;34382;43.160;24.148;2023-11-19T08:27:27;8.43;;;3.50;;
48596;SDS011;34382;43.160;24.148;2023-11-19T08:28:59;8.18;;;3.72;;
48596;SDS011;34382;43.160;24.148;2023-11-19T08:30:31;13.65;;;5.28;;
48596;SDS011;34382;43.160;24.148;2023-11-19T08:32:04;8.98;;;4.80;;
48596;SDS011;34382;43.160;24.148;2023-11-19T08:33:38;6.88;;;3.17;;
48596;SDS011;34382;43.160;24.148;2023-11-19T08:35:10;8.07;;;3.10;;
48596;SDS011;34382;43.160;24.148;2023-11-19T08:36:43;7.35;;;3.45;;
48596;SDS011;34382;43.160;24.148;2023-11-19T08:38:15;6.05;;;3.17;;
48596;SDS011;34382;43.160;24.148;2023-11-19T08:40:02;6.82;;;3.30;;
48596;SDS011;34382;43.160;24.148;2023-11-19T08:41:36;6.85;;;3.47;;
48596;SDS011;34382;43.160;24.148;2023-11-19T08:43:10;9.48;;;3.33;;
48596;SDS011;34382;43.160;24.148;2023-11-19T08:44:43;7.63;;;3.13;;
48596;SDS011;34382;43.160;24.148;2023-11-19T08:46:20;5.93;;;2.88;;
48596;SDS011;34382;43.160;24.148;2023-11-19T08:47:55;6.07;;;3.00;;
48596;SDS011;34382;43.160;24.148;2023-11-19T08:49:28;6.22;;;3.25;;
48596;SDS011;34382;43.160;24.148;2023-11-19T08:51:00;7.22;;;3.20;;
48596;SDS011;34382;43.160;24.148;2023-11-19T08:52:32;6.82;;;3.22;;
48596;SDS011;34382;43.160;24.148;2023-11-19T08:55:38;7.65;;;3.17;;
48596;SDS011;34382;43.160;24.148;2023-11-19T08:57:11;7.10;;;3.35;;
48596;SDS011;34382;43.160;24.148;2023-11-19T08:58:43;6.90;;;3.10;;
48596;SDS011;34382;43.160;24.148;2023-11-19T09:00:16;5.75;;;2.80;;
48596;SDS011;34382;43.160;24.148;2023-11-19T09:03:21;6.35;;;3.00;;
48596;SDS011;34382;43.160;24.148;2023-11-19T09:04:54;6.28;;;2.80;;
48596;SDS011;34382;43.160;24.148;2023-11-19T09:06:27;6.45;;;2.80;;
48596;SDS011;34382;43.160;24.148;2023-11-19T09:07:59;6.68;;;2.70;;
48596;SDS011;34382;43.160;24.148;2023-11-19T09:09:32;5.18;;;2.50;;
48596;SDS011;34382;43.160;24.148;2023-11-19T09:11:07;6.00;;;2.70;;
48596;SDS011;34382;43.160;24.148;2023-11-19T09:12:43;4.85;;;2.50;;
48596;SDS011;34382;43.160;24.148;2023-11-19T09:14:15;5.60;;;2.80;;
48596;SDS011;34382;43.160;24.148;2023-11-19T09:15:50;6.50;;;3.10;;
48596;SDS011;34382;43.160;24.148;2023-11-19T09:17:22;8.52;;;4.07;;
48596;SDS011;34382;43.160;24.148;2023-11-19T09:18:54;8.18;;;3.85;;
48596;SDS011;34382;43.160;24.148;2023-11-19T09:20:27;6.15;;;2.60;;
48596;SDS011;34382;43.160;24.148;2023-11-19T09:21:59;8.57;;;3.85;;
48596;SDS011;34382;43.160;24.148;2023-11-19T09:23:31;9.00;;;3.70;;
48596;SDS011;34382;43.160;24.148;2023-11-19T09:25:08;6.57;;;2.95;;
48596;SDS011;34382;43.160;24.148;2023-11-19T09:26:41;7.07;;;3.22;;
48596;SDS011;34382;43.160;24.148;2023-11-19T09:28:13;6.97;;;3.10;;
48596;SDS011;34382;43.160;24.148;2023-11-19T09:29:46;7.88;;;3.90;;
48596;SDS011;34382;43.160;24.148;2023-11-19T09:31:20;9.13;;;4.00;;
48596;SDS011;34382;43.160;24.148;2023-11-19T09:32:53;9.32;;;4.53;;
48596;SDS011;34382;43.160;24.148;2023-11-19T09:34:25;7.20;;;3.23;;
48596;SDS011;34382;43.160;24.148;2023-11-19T09:35:57;9.10;;;4.80;;
48596;SDS011;34382;43.160;24.148;2023-11-19T09:37:30;7.70;;;3.72;;